Wainwright, AK

7:54 AM AKDT on September 26, 2016 (GMT -0800)
Wainwright | | Change Station

Elev 39 ft 70.64 °N, 159.99 °W | Updated 13 minutes ago

Mostly Cloudy
Mostly Cloudy
31 °F
Feels Like 22 °F
N
12
Wind Variable Wind from NW

Today
High -- | Low -- °F
--% Chance of Precip.
Yesterday
High -- | Low -- °F
Precip. -- in
Pressure 29.79 in
Visibility 10.0 miles
Clouds Mostly Cloudy 2200 ft
Mostly Cloudy 2700 ft
Windchill 22 °F
Dew Point 24 °F
Humidity 76%
Rainfall 0.00 in
Snow Depth Not available.
8:39 AM 8:20 PM
Waning Crescent, 18% visible
SPECI PAWI 261541Z AUTO 31010KT 10SM BKN022 BKN027 M01/M04 A2979 RMK AO2 T10061044 TSNO
Pressure 29.79 in
Visibility 10.0 miles
Clouds Mostly Cloudy 2200 ft
Mostly Cloudy 2700 ft
Windchill 22 °F
Dew Point 24 °F
Humidity 76%
Rainfall 0.00 in
Snow Depth Not available.
8:39 AM 8:20 PM
Waning Crescent, 18% visible
SPECI PAWI 261541Z AUTO 31010KT 10SM BKN022 BKN027 M01/M04 A2979 RMK AO2 T10061044 TSNO

10-Day Weather Forecast

Almanac

Astronomy

Sep. 26, 2016 Rise Set
Actual Time
Civil Twilight
Nautical Twilight
Astronomical Twilight
Moon
Length of Visible Light
Length of Day
Tomorrow will be .
, % of the Moon is Illuminated

Today's Extremes

State Highs State Lows

Community

WunderPhotos

Upload Photos

1,941,906 photos uploaded!

WunderBlog® & News

Nearby

Air Quality

  Air Quality AQ Index Pollutant
Not available.

Snow Depth

Station Depth Elevation

Earthquake Activity

City Distance Mag. Time & Date
Minimum magnitude displayed is 2.5.

Coastal Water Temperatures

Place Temperature

Stations

Nearby Weather Stations

Station Location Temp. Windchill Dew Point Humidity Wind Precip. Elev Updated Type
                   

Watches & Warnings

There are currently no watches in effect.